createdAt,value
2019-05-16T00:01:20.752Z,73.85
2019-05-16T00:03:51.048Z,74.86
2019-05-16T00:06:22.302Z,74.12
2019-05-16T00:08:52.605Z,74.60
2019-05-16T00:11:23.226Z,74.62
2019-05-16T00:13:53.709Z,75.03
2019-05-16T00:16:24.283Z,75.90
2019-05-16T00:18:55.419Z,76.85
2019-05-16T00:21:25.691Z,77.68
2019-05-16T00:23:55.896Z,78.19
2019-05-16T00:26:28.247Z,77.48
2019-05-16T00:28:59.144Z,77.12
2019-05-16T00:31:30.049Z,77.74
2019-05-16T00:34:00.737Z,78.38
2019-05-16T00:36:31.062Z,79.12
2019-05-16T00:39:01.255Z,79.46
2019-05-16T00:41:31.429Z,79.62
2019-05-16T00:44:01.829Z,79.53
2019-05-16T00:46:32.126Z,80.15
2019-05-16T00:49:02.668Z,81.28
2019-05-16T00:51:33.329Z,82.11
2019-05-16T00:54:04.509Z,81.97
2019-05-16T00:56:35.035Z,82.53
2019-05-16T00:59:07.903Z,83.27
2019-05-16T01:01:39.093Z,84.79
2019-05-16T01:04:09.745Z,84.74
2019-05-16T01:06:39.999Z,85.22
2019-05-16T01:09:10.163Z,85.03
2019-05-16T01:11:41.263Z,85.65
2019-05-16T01:14:11.460Z,87.36
2019-05-16T01:16:41.638Z,86.43
2019-05-16T01:19:11.876Z,85.61
2019-05-16T01:21:42.987Z,85.75
2019-05-16T01:24:13.425Z,85.97
2019-05-16T01:26:45.247Z,86.09
2019-05-16T01:29:16.085Z,86.86
2019-05-16T01:31:48.394Z,86.85
2019-05-16T01:34:18.875Z,87.20
2019-05-16T01:36:49.209Z,87.32
2019-05-16T01:39:19.901Z,88.03
2019-05-16T01:41:50.887Z,88.72
2019-05-16T01:44:21.515Z,89.53
2019-05-16T01:46:51.895Z,89.41
2019-05-16T01:49:22.745Z,89.66
2019-05-16T01:51:53.228Z,90.16
2019-05-16T01:54:23.577Z,92.10
2019-05-16T01:56:54.843Z,93.30
2019-05-16T01:59:25.411Z,94.54
2019-05-16T02:01:58.683Z,95.57
2019-05-16T02:04:28.718Z,96.48
2019-05-16T02:06:59.669Z,95.13
2019-05-16T02:09:29.813Z,95.01
2019-05-16T02:12:00.135Z,92.24
2019-05-16T02:14:31.026Z,93.42
2019-05-16T02:17:03.466Z,93.91
2019-05-16T02:19:35.696Z,93.64
2019-05-16T02:22:08.723Z,94.80
2019-05-16T02:24:38.977Z,95.04
2019-05-16T02:27:09.657Z,97.90
2019-05-16T02:29:40.386Z,98.45
2019-05-16T02:32:11.757Z,97.34
2019-05-16T02:34:41.994Z,96.87
2019-05-16T02:37:24.161Z,97.03
2019-05-16T02:39:45.464Z,97.67
2019-05-16T02:42:15.659Z,98.42
2019-05-16T02:44:45.873Z,99.63
2019-05-16T02:47:16.250Z,100.00
2019-05-16T02:49:50.304Z,100.00
2019-05-16T02:52:22.280Z,100.00
2019-05-16T02:54:52.502Z,100.00
2019-05-16T02:57:22.812Z,100.00
2019-05-16T02:59:53.468Z,100.00
2019-05-16T03:02:23.679Z,100.00
2019-05-16T03:04:54.336Z,100.00
2019-05-16T03:07:37.880Z,100.00
2019-05-16T03:10:01.174Z,100.00
2019-05-16T03:12:31.411Z,100.00
2019-05-16T03:15:02.834Z,100.00
2019-05-16T03:17:36.011Z,100.00
2019-05-16T03:20:10.549Z,100.00
2019-05-16T03:22:41.212Z,100.00
2019-05-16T03:25:12.965Z,100.00
2019-05-16T03:27:44.588Z,100.00
2019-05-16T03:30:16.929Z,100.00
2019-05-16T03:32:47.363Z,100.00
2019-05-16T03:35:23.954Z,100.00
2019-05-16T03:37:57.087Z,100.00
2019-05-16T03:40:31.062Z,100.00
2019-05-16T03:43:01.323Z,100.00
2019-05-16T03:45:32.749Z,100.00
2019-05-16T03:48:03.573Z,100.00
2019-05-16T03:50:34.123Z,100.00
2019-05-16T03:53:04.766Z,100.00
2019-05-16T03:55:35.073Z,100.00
2019-05-16T03:58:06.404Z,100.00
2019-05-16T04:00:55.733Z,100.00
2019-05-16T04:03:29.187Z,100.00
2019-05-16T04:06:01.176Z,100.00
2019-05-16T04:08:32.338Z,100.00
2019-05-16T04:11:02.642Z,100.00
2019-05-16T04:13:33.347Z,100.00
2019-05-16T04:16:04.460Z,100.00
2019-05-16T04:18:35.314Z,100.00
2019-05-16T04:21:05.973Z,100.00
2019-05-16T04:23:36.434Z,100.00
2019-05-16T04:26:07.125Z,100.00
2019-05-16T04:28:40.968Z,100.00
2019-05-16T04:31:12.360Z,100.00
2019-05-16T04:33:42.598Z,100.00
2019-05-16T04:36:13.222Z,100.00
2019-05-16T04:38:47.037Z,100.00
2019-05-16T04:41:17.073Z,100.00
2019-05-16T04:43:50.291Z,100.00
2019-05-16T04:46:21.302Z,100.00
2019-05-16T04:48:51.962Z,100.00
2019-05-16T04:51:22.290Z,100.00
2019-05-16T04:53:52.797Z,100.00
2019-05-16T04:56:24.281Z,100.00
2019-05-16T04:58:55.447Z,100.00
2019-05-16T05:01:25.921Z,100.00
2019-05-16T05:04:08.849Z,100.00
2019-05-16T05:06:31.024Z,100.00
2019-05-16T05:09:03.478Z,100.00
2019-05-16T05:11:33.872Z,100.00
2019-05-16T05:14:04.558Z,100.00
2019-05-16T05:16:36.148Z,100.00
2019-05-16T05:19:06.466Z,100.00
2019-05-16T05:21:36.780Z,100.00
2019-05-16T05:24:10.680Z,100.00
2019-05-16T05:26:41.455Z,100.00
2019-05-16T05:29:11.820Z,100.00
2019-05-16T05:31:45.101Z,100.00
2019-05-16T05:34:15.055Z,100.00
2019-05-16T05:36:45.494Z,100.00
2019-05-16T05:39:15.886Z,100.00
2019-05-16T05:41:46.197Z,100.00
2019-05-16T05:44:16.478Z,100.00
2019-05-16T05:46:47.097Z,100.00
2019-05-16T05:49:17.306Z,100.00
2019-05-16T05:51:50.029Z,100.00
2019-05-16T05:54:21.418Z,100.00
2019-05-16T05:56:51.737Z,100.00
2019-05-16T05:59:22.446Z,100.00
2019-05-16T06:01:53.300Z,100.00
2019-05-16T06:04:24.768Z,100.00
2019-05-16T06:06:55.029Z,100.00
2019-05-16T06:09:29.343Z,100.00
2019-05-16T06:11:57.702Z,100.00
2019-05-16T06:14:30.606Z,100.00
2019-05-16T06:17:00.605Z,100.00
2019-05-16T06:19:31.769Z,100.00
2019-05-16T06:22:02.661Z,100.00
2019-05-16T06:24:33.492Z,100.00
2019-05-16T06:27:03.768Z,100.00
2019-05-16T06:29:34.065Z,100.00
2019-05-16T06:32:05.925Z,100.00
2019-05-16T06:34:36.576Z,100.00
2019-05-16T06:37:09.676Z,100.00
2019-05-16T06:39:45.085Z,100.00
2019-05-16T06:42:11.587Z,100.00
2019-05-16T06:44:42.874Z,100.00
2019-05-16T06:47:19.672Z,100.00
2019-05-16T06:49:45.251Z,100.00
2019-05-16T06:52:15.986Z,100.00
2019-05-16T06:54:46.338Z,100.00
2019-05-16T06:57:16.671Z,100.00
2019-05-16T06:59:46.881Z,100.00
2019-05-16T07:02:29.694Z,100.00
2019-05-16T07:04:50.650Z,100.00
2019-05-16T07:07:21.354Z,100.00
2019-05-16T07:10:00.545Z,100.00
2019-05-16T07:12:23.866Z,100.00
2019-05-16T07:14:54.764Z,100.00
2019-05-16T07:17:25.745Z,100.00
2019-05-16T07:19:56.171Z,100.00
2019-05-16T07:22:26.497Z,100.00
2019-05-16T07:24:57.164Z,100.00
2019-05-16T07:27:30.937Z,100.00
2019-05-16T07:30:01.560Z,100.00
2019-05-16T07:32:31.818Z,100.00
2019-05-16T07:35:02.746Z,100.00
2019-05-16T07:37:34.795Z,100.00
2019-05-16T07:40:16.027Z,100.00
2019-05-16T07:42:37.338Z,100.00
2019-05-16T07:45:09.994Z,100.00
2019-05-16T07:47:40.348Z,100.00
2019-05-16T07:50:10.741Z,100.00
2019-05-16T07:52:41.050Z,100.00
2019-05-16T07:55:11.270Z,100.00
2019-05-16T07:57:41.995Z,100.00
2019-05-16T08:00:12.851Z,100.00
2019-05-16T08:02:43.247Z,100.00
2019-05-16T08:05:14.367Z,100.00
2019-05-16T08:07:44.553Z,100.00
2019-05-16T08:10:14.954Z,100.00
2019-05-16T08:12:51.317Z,100.00
2019-05-16T08:15:21.591Z,100.00
2019-05-16T08:17:52.636Z,100.00
2019-05-16T08:20:23.942Z,100.00
2019-05-16T08:22:54.260Z,100.00
2019-05-16T08:25:24.906Z,97.10
2019-05-16T08:27:56.179Z,97.05
2019-05-16T08:30:31.656Z,100.00
2019-05-16T08:33:02.371Z,100.00
2019-05-16T08:35:33.478Z,100.00
2019-05-16T08:38:03.748Z,100.00
2019-05-16T08:40:59.668Z,100.00
2019-05-16T08:43:06.882Z,100.00
2019-05-16T08:45:41.728Z,100.00
2019-05-16T08:48:11.633Z,100.00
2019-05-16T08:50:50.367Z,100.00
2019-05-16T08:53:16.034Z,100.00
2019-05-16T08:55:50.524Z,100.00
2019-05-16T08:58:22.626Z,100.00
2019-05-16T09:00:56.053Z,100.00
2019-05-16T09:03:24.846Z,100.00
2019-05-16T09:05:55.091Z,100.00
2019-05-16T09:08:25.355Z,100.00
2019-05-16T09:11:02.034Z,100.00
2019-05-16T09:13:28.058Z,100.00
2019-05-16T09:15:59.175Z,100.00
2019-05-16T09:18:40.630Z,100.00
2019-05-16T09:21:02.633Z,100.00
2019-05-16T09:23:32.949Z,100.00
2019-05-16T09:26:07.178Z,100.00
2019-05-16T09:28:38.953Z,100.00
2019-05-16T09:31:08.688Z,100.00
2019-05-16T09:33:39.036Z,100.00
2019-05-16T09:36:09.433Z,100.00
2019-05-16T09:38:39.629Z,100.00
2019-05-16T09:41:10.206Z,100.00
2019-05-16T09:43:40.402Z,100.00
2019-05-16T09:46:10.624Z,100.00
2019-05-16T09:48:41.062Z,100.00
2019-05-16T09:51:11.429Z,100.00
2019-05-16T09:53:41.753Z,100.00
2019-05-16T09:56:12.200Z,100.00
2019-05-16T09:58:47.283Z,100.00
2019-05-16T10:01:18.449Z,100.00
2019-05-16T10:03:50.116Z,100.00
2019-05-16T10:06:20.440Z,100.00
2019-05-16T10:08:50.646Z,100.00
2019-05-16T10:11:21.441Z,100.00
2019-05-16T10:13:51.686Z,100.00
2019-05-16T10:16:22.071Z,100.00
2019-05-16T10:18:52.295Z,100.00
2019-05-16T10:21:22.698Z,100.00
2019-05-16T10:23:53.241Z,100.00
2019-05-16T10:26:27.469Z,100.00
2019-05-16T10:28:57.852Z,100.00
2019-05-16T10:31:41.607Z,100.00
2019-05-16T10:34:01.195Z,100.00
2019-05-16T10:36:31.834Z,100.00
2019-05-16T10:39:02.046Z,100.00
2019-05-16T10:41:33.166Z,100.00
2019-05-16T10:44:06.219Z,100.00
2019-05-16T10:46:37.734Z,100.00
2019-05-16T10:49:08.326Z,100.00
2019-05-16T10:51:38.675Z,100.00
2019-05-16T10:54:13.692Z,100.00
2019-05-16T10:56:42.056Z,100.00
2019-05-16T10:59:53.261Z,100.00
2019-05-16T11:01:47.121Z,100.00
2019-05-16T11:04:29.013Z,100.00
2019-05-16T11:06:50.784Z,100.00
2019-05-16T11:09:22.090Z,100.00
2019-05-16T11:11:52.537Z,100.00
2019-05-16T11:14:23.193Z,100.00
2019-05-16T11:16:53.749Z,100.00
2019-05-16T11:19:24.786Z,100.00
2019-05-16T11:22:00.469Z,100.00
2019-05-16T11:24:30.898Z,100.00
2019-05-16T11:27:01.115Z,100.00
2019-05-16T11:29:32.422Z,100.00
2019-05-16T11:32:03.032Z,100.00
2019-05-16T11:34:34.380Z,100.00
2019-05-16T11:37:06.853Z,100.00
2019-05-16T11:39:38.065Z,100.00
2019-05-16T11:42:08.368Z,100.00
2019-05-16T11:44:38.534Z,100.00
2019-05-16T11:47:09.361Z,100.00
2019-05-16T11:49:39.855Z,100.00
2019-05-16T11:52:10.179Z,100.00
2019-05-16T11:54:41.502Z,100.00
2019-05-16T11:57:12.465Z,100.00
2019-05-16T11:59:43.331Z,100.00
2019-05-16T12:02:13.738Z,100.00
2019-05-16T12:04:47.010Z,100.00
2019-05-16T12:07:19.150Z,100.00
2019-05-16T12:09:55.169Z,100.00
2019-05-16T12:12:21.126Z,100.00
2019-05-16T12:14:55.002Z,100.00
2019-05-16T12:17:27.819Z,100.00
2019-05-16T12:19:57.664Z,100.00
2019-05-16T12:22:28.255Z,98.74
2019-05-16T12:24:58.679Z,96.09
2019-05-16T12:27:32.893Z,94.44
2019-05-16T12:30:01.552Z,94.42
2019-05-16T12:32:32.521Z,97.37
2019-05-16T12:35:03.760Z,96.02
2019-05-16T12:37:36.966Z,99.48
2019-05-16T12:40:06.924Z,96.09
2019-05-16T12:42:37.555Z,95.84
2019-05-16T12:45:08.225Z,99.38
2019-05-16T12:47:39.603Z,100.00
2019-05-16T12:50:11.760Z,100.00
2019-05-16T12:52:41.982Z,100.00
2019-05-16T12:55:12.533Z,100.00
2019-05-16T12:57:43.089Z,100.00
2019-05-16T13:00:16.357Z,100.00
2019-05-16T13:02:47.394Z,100.00
2019-05-16T13:05:18.312Z,100.00
2019-05-16T13:07:48.624Z,100.00
2019-05-16T13:10:19.475Z,100.00
2019-05-16T13:12:49.685Z,100.00
2019-05-16T13:15:27.325Z,100.00
2019-05-16T13:17:57.611Z,100.00
2019-05-16T13:20:29.113Z,100.00
2019-05-16T13:22:59.440Z,100.00
2019-05-16T13:25:30.695Z,100.00
2019-05-16T13:28:01.999Z,100.00
2019-05-16T13:30:32.262Z,100.00
2019-05-16T13:33:02.674Z,100.00
2019-05-16T13:35:33.392Z,100.00
2019-05-16T13:38:03.734Z,100.00
2019-05-16T13:40:35.120Z,100.00
2019-05-16T13:43:09.513Z,100.00
2019-05-16T13:45:37.946Z,100.00
2019-05-16T13:48:09.306Z,100.00
2019-05-16T13:50:40.222Z,100.00
2019-05-16T13:53:10.566Z,100.00
2019-05-16T13:55:41.412Z,100.00
2019-05-16T13:58:12.822Z,100.00
2019-05-16T14:00:43.137Z,100.00
2019-05-16T14:03:17.887Z,100.00
2019-05-16T14:05:47.924Z,100.00
2019-05-16T14:08:18.689Z,100.00
2019-05-16T14:10:49.451Z,100.00
2019-05-16T14:13:21.091Z,100.00
2019-05-16T14:15:51.585Z,100.00
2019-05-16T14:18:22.018Z,100.00
2019-05-16T14:20:52.925Z,100.00
2019-05-16T14:23:23.523Z,100.00
2019-05-16T14:25:54.002Z,100.00
2019-05-16T14:28:24.520Z,100.00
2019-05-16T14:30:57.271Z,100.00
2019-05-16T14:33:27.748Z,100.00
2019-05-16T14:35:58.085Z,100.00
2019-05-16T14:38:29.429Z,100.00
2019-05-16T14:40:59.779Z,100.00
2019-05-16T14:43:30.061Z,100.00
2019-05-16T14:46:00.379Z,100.00
2019-05-16T14:48:30.565Z,100.00
2019-05-16T14:51:01.399Z,100.00
2019-05-16T14:53:37.635Z,100.00
2019-05-16T14:56:07.287Z,100.00
2019-05-16T14:58:39.003Z,100.00
2019-05-16T15:01:09.564Z,100.00
2019-05-16T15:03:41.217Z,100.00
2019-05-16T15:06:11.872Z,100.00
2019-05-16T15:08:42.512Z,100.00
2019-05-16T15:11:14.561Z,100.00
2019-05-16T15:13:44.922Z,100.00
2019-05-16T15:16:16.994Z,100.00
2019-05-16T15:18:49.060Z,100.00
2019-05-16T15:21:19.364Z,100.00
2019-05-16T15:23:50.241Z,97.18
2019-05-16T15:26:22.105Z,99.71
2019-05-16T15:28:52.410Z,97.78
2019-05-16T15:31:23.265Z,97.69
2019-05-16T15:33:53.544Z,94.64
2019-05-16T15:36:26.904Z,94.58
2019-05-16T15:38:59.425Z,91.84
2019-05-16T15:41:29.136Z,92.27
2019-05-16T15:43:59.399Z,91.96
2019-05-16T15:46:30.451Z,91.49
2019-05-16T15:49:02.529Z,93.20
2019-05-16T15:51:36.756Z,88.83
2019-05-16T15:54:06.741Z,90.39
2019-05-16T15:56:38.728Z,87.97
2019-05-16T15:59:09.915Z,84.60
2019-05-16T16:01:41.103Z,83.27
2019-05-16T16:04:13.745Z,78.37
2019-05-16T16:06:49.657Z,78.76
2019-05-16T16:09:19.996Z,75.54
2019-05-16T16:11:50.326Z,75.11
2019-05-16T16:14:20.811Z,74.23
2019-05-16T16:16:51.335Z,74.52
2019-05-16T16:19:26.466Z,75.64
2019-05-16T16:21:57.886Z,76.69
2019-05-16T16:24:28.698Z,74.88
2019-05-16T16:26:59.337Z,77.42
2019-05-16T16:29:33.062Z,77.92
2019-05-16T16:32:02.870Z,78.73
2019-05-16T16:34:36.569Z,79.33
2019-05-16T16:37:07.590Z,77.42
2019-05-16T16:39:38.872Z,76.87
2019-05-16T16:42:09.533Z,77.81
2019-05-16T16:44:40.476Z,77.81
2019-05-16T16:47:13.298Z,78.70
2019-05-16T16:49:43.729Z,80.24
2019-05-16T16:52:16.562Z,80.76
2019-05-16T16:54:47.793Z,80.76
2019-05-16T16:57:21.915Z,81.45
2019-05-16T16:59:52.378Z,84.68
2019-05-16T17:02:22.603Z,85.63
2019-05-16T17:05:01.462Z,87.89
2019-05-16T17:07:27.998Z,92.93
2019-05-16T17:09:58.429Z,92.93
2019-05-16T17:12:29.138Z,95.11
2019-05-16T17:15:01.294Z,97.79
2019-05-16T17:17:31.979Z,100.00
2019-05-16T17:20:07.671Z,100.00
2019-05-16T17:22:38.610Z,100.00
2019-05-16T17:25:09.807Z,100.00
2019-05-16T17:27:39.825Z,100.00
2019-05-16T17:30:16.886Z,100.00
2019-05-16T17:32:58.536Z,100.00
2019-05-16T17:35:32.049Z,100.00
2019-05-16T17:38:02.774Z,100.00
2019-05-16T17:40:33.199Z,100.00
2019-05-16T17:43:03.257Z,100.00
2019-05-16T17:45:33.570Z,100.00
2019-05-16T17:48:06.550Z,100.00
2019-05-16T17:50:37.789Z,100.00
2019-05-16T17:53:07.852Z,100.00
2019-05-16T17:55:38.330Z,100.00
2019-05-16T17:58:09.114Z,100.00
2019-05-16T18:00:40.316Z,100.00
2019-05-16T18:03:10.564Z,100.00
2019-05-16T18:05:41.154Z,100.00
2019-05-16T18:08:11.458Z,100.00
2019-05-16T18:10:41.908Z,100.00
2019-05-16T18:13:12.732Z,100.00
2019-05-16T18:15:43.052Z,100.00
2019-05-16T18:18:13.253Z,100.00
2019-05-16T18:20:54.789Z,100.00
2019-05-16T18:23:16.482Z,100.00
2019-05-16T18:25:47.065Z,100.00
2019-05-16T18:28:17.639Z,100.00
2019-05-16T18:30:48.586Z,100.00
2019-05-16T18:33:19.378Z,100.00
2019-05-16T18:35:50.678Z,100.00
2019-05-16T18:38:20.869Z,100.00
2019-05-16T18:40:52.565Z,100.00
2019-05-16T18:43:22.754Z,100.00
2019-05-16T18:45:56.499Z,100.00
2019-05-16T18:48:27.373Z,100.00
2019-05-16T18:50:58.560Z,100.00
2019-05-16T18:53:30.782Z,100.00
2019-05-16T18:56:02.256Z,100.00
2019-05-16T18:58:32.962Z,100.00
2019-05-16T19:01:03.151Z,100.00
2019-05-16T19:03:35.236Z,100.00
2019-05-16T19:06:07.776Z,100.00
2019-05-16T19:08:38.605Z,100.00
2019-05-16T19:11:09.246Z,100.00
2019-05-16T19:13:39.810Z,100.00
2019-05-16T19:16:13.671Z,100.00
2019-05-16T19:18:43.880Z,100.00
2019-05-16T19:21:16.708Z,100.00
2019-05-16T19:23:48.053Z,100.00
2019-05-16T19:26:18.446Z,100.00
2019-05-16T19:28:48.631Z,100.00
2019-05-16T19:31:19.275Z,100.00
2019-05-16T19:33:50.003Z,100.00
2019-05-16T19:36:21.732Z,100.00
2019-05-16T19:38:57.069Z,100.00
2019-05-16T19:41:34.139Z,100.00
2019-05-16T19:44:06.773Z,100.00
2019-05-16T19:46:39.868Z,100.00
2019-05-16T19:49:12.149Z,100.00
2019-05-16T19:51:49.154Z,100.00
2019-05-16T19:54:19.561Z,100.00
2019-05-16T19:56:50.398Z,100.00
2019-05-16T19:59:20.645Z,100.00
2019-05-16T20:01:53.427Z,100.00
2019-05-16T20:04:23.926Z,100.00
2019-05-16T20:06:56.773Z,100.00
2019-05-16T20:09:30.318Z,100.00
2019-05-16T20:12:00.955Z,100.00
2019-05-16T20:14:31.561Z,100.00
2019-05-16T20:17:02.062Z,100.00
2019-05-16T20:19:32.264Z,100.00
2019-05-16T20:22:02.713Z,100.00
2019-05-16T20:24:33.516Z,100.00
2019-05-16T20:27:05.185Z,100.00
2019-05-16T20:29:36.825Z,100.00
2019-05-16T20:32:08.208Z,100.00
2019-05-16T20:34:39.551Z,100.00
2019-05-16T20:37:10.341Z,100.00
2019-05-16T20:39:41.254Z,100.00
2019-05-16T20:42:11.570Z,100.00
2019-05-16T20:44:42.655Z,100.00
2019-05-16T20:47:16.601Z,100.00
2019-05-16T20:49:50.725Z,100.00
2019-05-16T20:52:21.299Z,100.00
2019-05-16T20:54:51.451Z,100.00
2019-05-16T20:57:21.944Z,100.00
2019-05-16T20:59:53.607Z,100.00
2019-05-16T21:02:27.430Z,100.00
2019-05-16T21:04:58.062Z,100.00
2019-05-16T21:07:29.120Z,100.00
2019-05-16T21:10:02.222Z,100.00
2019-05-16T21:12:37.238Z,100.00
2019-05-16T21:15:08.521Z,100.00
2019-05-16T21:17:38.622Z,100.00
2019-05-16T21:20:09.344Z,100.00
2019-05-16T21:22:39.408Z,100.00
2019-05-16T21:25:09.846Z,100.00
2019-05-16T21:27:42.583Z,100.00
2019-05-16T21:30:13.449Z,100.00
2019-05-16T21:32:43.594Z,100.00
2019-05-16T21:35:14.092Z,100.00
2019-05-16T21:37:47.777Z,100.00
2019-05-16T21:40:18.865Z,100.00
2019-05-16T21:42:49.799Z,100.00
2019-05-16T21:45:20.603Z,100.00
2019-05-16T21:47:50.674Z,100.00
2019-05-16T21:50:21.479Z,100.00
2019-05-16T21:52:51.694Z,100.00
2019-05-16T21:55:22.077Z,100.00
2019-05-16T21:57:52.153Z,100.00
2019-05-16T22:00:28.003Z,100.00
2019-05-16T22:02:58.521Z,100.00
2019-05-16T22:05:29.489Z,100.00
2019-05-16T22:07:59.541Z,100.00
2019-05-16T22:10:30.050Z,100.00
2019-05-16T22:13:00.388Z,100.00
2019-05-16T22:15:31.064Z,100.00
2019-05-16T22:18:01.461Z,100.00
2019-05-16T22:20:32.092Z,100.00
2019-05-16T22:23:02.172Z,100.00
2019-05-16T22:25:32.169Z,100.00
2019-05-16T22:28:03.332Z,100.00
2019-05-16T22:30:33.857Z,100.00
2019-05-16T22:33:04.016Z,100.00
2019-05-16T22:35:34.065Z,100.00
2019-05-16T22:38:06.623Z,100.00
2019-05-16T22:40:37.426Z,100.00
2019-05-16T22:43:10.218Z,100.00
2019-05-16T22:45:41.206Z,100.00
2019-05-16T22:48:11.715Z,100.00
2019-05-16T22:50:41.786Z,100.00
2019-05-16T22:53:14.341Z,100.00
2019-05-16T22:55:44.425Z,100.00
2019-05-16T22:58:16.412Z,100.00
2019-05-16T23:00:47.029Z,100.00
2019-05-16T23:03:18.232Z,100.00
2019-05-16T23:05:48.251Z,100.00
2019-05-16T23:08:18.872Z,100.00
2019-05-16T23:10:49.348Z,100.00
2019-05-16T23:13:19.353Z,100.00
2019-05-16T23:15:49.919Z,100.00
2019-05-16T23:18:20.402Z,100.00
2019-05-16T23:20:50.733Z,100.00
2019-05-16T23:23:20.973Z,100.00
2019-05-16T23:25:51.890Z,100.00
2019-05-16T23:28:22.031Z,100.00
2019-05-16T23:30:52.149Z,100.00
2019-05-16T23:33:22.200Z,100.00
2019-05-16T23:35:52.729Z,100.00
2019-05-16T23:38:22.718Z,100.00
2019-05-16T23:40:53.093Z,100.00
2019-05-16T23:43:23.212Z,100.00
2019-05-16T23:45:53.203Z,100.00
2019-05-16T23:48:24.172Z,100.00
2019-05-16T23:50:56.843Z,100.00
2019-05-16T23:53:27.071Z,100.00
2019-05-16T23:55:57.596Z,100.00
2019-05-16T23:58:28.158Z,100.00
